Time;durP1;ratioP1;P1;durP2;ratioP2;P2;SDS_P1;SDS_P2;PMS_P1;PMS_P2;Temp;Humidity;BMP_temperature;BMP_pressure;BME280_temperature;BME280_humidity;BME280_pressure;Samples;Min_cycle;Max_cycle;Signal;HPM_P1;HPM_P2
2022/10/18 00:00:54;;;;;;;9.90;8.90;;;12.90;99.90;;;;;;5033203;28;20172;-58
2022/10/18 00:03:20;;;;;;;9.57;8.67;;;12.90;99.90;;;;;;5033071;28;20168;-58
2022/10/18 00:05:47;;;;;;;10.97;9.97;;;12.90;99.90;;;;;;5032820;28;20199;-60
2022/10/18 00:08:12;;;;;;;10.60;9.60;;;12.80;99.90;;;;;;5033757;28;20179;-55
2022/10/18 00:10:38;;;;;;;11.07;9.97;;;12.70;99.90;;;;;;5015716;28;20234;-54
2022/10/18 00:13:04;;;;;;;11.43;10.33;;;12.70;99.90;;;;;;5033636;28;20219;-58
2022/10/18 00:15:29;;;;;;;10.73;9.73;;;12.70;99.90;;;;;;5033385;28;20191;-60
2022/10/18 00:17:55;;;;;;;12.20;10.20;;;12.70;99.90;;;;;;5031700;28;20655;-61
2022/10/18 00:20:21;;;;;;;10.20;9.20;;;12.70;99.90;;;;;;5030206;28;20222;-61
2022/10/18 00:22:46;;;;;;;8.93;8.03;;;12.60;99.90;;;;;;5031261;28;20275;-61
2022/10/18 00:25:12;;;;;;;7.77;7.13;;;12.60;99.90;;;;;;5031695;28;20283;-61
2022/10/18 00:27:38;;;;;;;8.13;7.43;;;12.60;99.90;;;;;;5032234;28;20180;-61
2022/10/18 00:30:04;;;;;;;7.27;6.67;;;12.60;99.90;;;;;;5032771;28;20187;-59
2022/10/18 00:32:30;;;;;;;7.37;6.77;;;12.60;99.90;;;;;;5032738;28;20616;-61
2022/10/18 00:34:56;;;;;;;8.40;7.70;;;12.70;99.90;;;;;;5032930;28;20192;-61
2022/10/18 00:37:21;;;;;;;6.30;5.80;;;12.70;99.90;;;;;;5040366;28;20201;-59
2022/10/18 00:39:47;;;;;;;7.80;7.03;;;12.80;99.90;;;;;;5053245;28;20174;-59
2022/10/18 00:42:17;;;;;;;8.13;6.77;;;12.70;99.90;;;;;;5053124;28;20175;-58
2022/10/18 00:44:43;;;;;;;6.63;6.00;;;12.70;99.90;;;;;;5052743;28;20175;-59
2022/10/18 00:47:11;;;;;;;8.13;6.33;;;12.70;99.90;;;;;;5053577;28;20167;-58
2022/10/18 00:49:42;;;;;;;7.33;6.57;;;12.70;99.90;;;;;;5053239;28;20250;-59
2022/10/18 00:52:15;;;;;;;8.53;7.30;;;12.70;99.90;;;;;;5053523;28;20200;-60
2022/10/18 00:54:43;;;;;;;9.13;7.23;;;12.60;99.90;;;;;;5039405;28;20172;-58
2022/10/18 00:57:10;;;;;;;7.90;7.10;;;12.60;99.90;;;;;;5032972;28;20389;-58
2022/10/18 00:59:36;;;;;;;12.30;7.40;;;12.60;99.90;;;;;;5032569;28;20200;-59
2022/10/18 01:02:03;;;;;;;8.27;7.47;;;12.60;99.90;;;;;;5032436;28;20179;-59
2022/10/18 01:04:28;;;;;;;10.20;8.90;;;12.70;99.90;;;;;;5032355;28;20199;-60
2022/10/18 01:07:23;;;;;;;7.83;6.90;;;12.60;99.90;;;;;;5031778;28;20164;-58
2022/10/18 01:10:07;;;;;;;9.60;7.20;;;12.70;99.90;;;;;;4990699;28;20193;-60
2022/10/18 01:12:41;;;;;;;9.63;7.70;;;12.50;99.90;;;;;;4991121;28;20187;-60
2022/10/18 01:15:11;;;;;;;7.30;6.00;;;12.50;99.90;;;;;;4990281;28;20209;-59
2022/10/18 01:18:01;;;;;;;7.20;6.50;;;12.40;99.90;;;;;;4989803;28;20201;-60
2022/10/18 01:20:56;;;;;;;9.33;6.40;;;12.50;99.90;;;;;;4990044;28;20690;-59
2022/10/18 01:24:12;;;;;;;7.30;6.60;;;12.50;99.90;;;;;;4990600;28;20173;-59
2022/10/18 01:26:49;;;;;;;8.63;7.83;;;12.50;99.90;;;;;;4932477;29;20218;-57
2022/10/18 01:29:30;;;;;;;10.87;9.20;;;12.60;99.90;;;;;;4931916;29;20201;-59
2022/10/18 01:32:00;;;;;;;9.70;8.40;;;12.60;99.90;;;;;;4932614;29;20692;-59
2022/10/18 01:34:32;;;;;;;8.70;7.80;;;12.60;99.90;;;;;;4931783;29;20186;-60
2022/10/18 01:37:00;;;;;;;8.03;7.13;;;12.60;99.90;;;;;;4930721;29;20195;-61
2022/10/18 01:39:35;;;;;;;8.10;7.30;;;12.60;99.90;;;;;;4931311;29;20262;-58
2022/10/18 01:42:05;;;;;;;7.90;6.57;;;12.50;99.90;;;;;;4932628;29;20179;-59
2022/10/18 01:44:33;;;;;;;8.73;7.83;;;12.50;99.90;;;;;;4930239;29;20270;-61
2022/10/18 01:47:00;;;;;;;9.13;8.27;;;12.30;99.90;;;;;;4932231;29;20234;-60
2022/10/18 01:49:26;;;;;;;9.60;8.60;;;12.30;99.90;;;;;;4950973;28;20636;-59
2022/10/18 01:51:52;;;;;;;9.30;8.00;;;12.20;99.90;;;;;;4935241;29;20191;-59
2022/10/18 01:54:25;;;;;;;8.83;7.93;;;12.20;99.90;;;;;;4966734;28;20200;-60
2022/10/18 01:56:59;;;;;;;11.30;7.97;;;12.20;99.90;;;;;;4970729;28;20682;-59
2022/10/18 01:59:39;;;;;;;8.07;7.27;;;12.10;99.90;;;;;;4954230;28;20234;-59
2022/10/18 02:02:28;;;;;;;7.90;7.17;;;12.10;99.90;;;;;;4959849;28;20680;-60
2022/10/18 02:05:23;;;;;;;7.93;6.30;;;12.00;99.90;;;;;;5031178;28;20191;-60
2022/10/18 02:08:10;;;;;;;7.03;6.33;;;11.90;99.90;;;;;;4990066;28;20267;-59
2022/10/18 02:11:07;;;;;;;6.57;5.97;;;11.80;99.90;;;;;;4990075;28;20189;-59
2022/10/18 02:13:39;;;;;;;6.50;5.97;;;11.90;99.90;;;;;;4931837;29;20687;-59
2022/10/18 02:16:09;;;;;;;7.27;6.67;;;11.90;99.90;;;;;;4931847;29;20211;-58
2022/10/18 02:18:40;;;;;;;6.40;5.77;;;11.80;99.90;;;;;;4931344;29;20292;-58
2022/10/18 02:21:09;;;;;;;6.33;5.73;;;11.80;99.90;;;;;;4930712;29;20183;-58
2022/10/18 02:23:37;;;;;;;6.33;5.63;;;11.80;99.90;;;;;;4930273;29;20211;-59
2022/10/18 02:26:03;;;;;;;7.93;5.87;;;11.70;99.90;;;;;;4931276;29;20207;-59
2022/10/18 02:28:28;;;;;;;6.30;5.67;;;11.70;99.90;;;;;;4932001;29;20688;-58
2022/10/18 02:31:09;;;;;;;6.27;5.70;;;11.70;99.90;;;;;;4931928;29;20270;-57
2022/10/18 02:33:44;;;;;;;7.13;5.40;;;11.70;99.90;;;;;;4931574;29;20183;-58
2022/10/18 02:36:17;;;;;;;6.93;6.33;;;11.60;99.90;;;;;;4929874;29;20293;-58
2022/10/18 02:38:45;;;;;;;8.00;7.23;;;11.70;99.90;;;;;;4931342;29;20230;-59
2022/10/18 02:41:10;;;;;;;7.00;6.40;;;11.80;99.90;;;;;;4936539;29;20190;-58
2022/10/18 02:43:36;;;;;;;7.50;6.80;;;11.80;99.90;;;;;;4937767;28;20265;-59
2022/10/18 02:46:02;;;;;;;7.43;6.27;;;11.80;99.90;;;;;;4976660;28;20202;-58
2022/10/18 02:48:28;;;;;;;8.97;7.93;;;11.70;99.90;;;;;;4976576;28;20648;-56
2022/10/18 02:50:53;;;;;;;10.50;8.20;;;11.70;99.90;;;;;;5032147;28;20266;-60
2022/10/18 02:53:19;;;;;;;8.30;7.50;;;11.80;99.90;;;;;;5036295;28;20725;-60
2022/10/18 02:55:44;;;;;;;10.13;8.93;;;11.80;99.90;;;;;;5037529;28;20250;-58
2022/10/18 02:58:10;;;;;;;10.10;9.17;;;11.70;99.90;;;;;;5037611;28;20200;-60
2022/10/18 03:00:35;;;;;;;10.70;9.70;;;11.80;99.90;;;;;;5037884;28;20176;-59
2022/10/18 03:03:01;;;;;;;9.57;7.90;;;11.80;99.90;;;;;;5037602;28;20198;-58
2022/10/18 03:05:27;;;;;;;7.07;6.47;;;11.70;99.90;;;;;;5037767;28;20191;-60
2022/10/18 03:07:55;;;;;;;8.70;7.60;;;11.50;99.90;;;;;;5037703;28;20184;-59
2022/10/18 03:10:20;;;;;;;10.47;9.37;;;11.50;99.90;;;;;;5037789;28;20172;-58
2022/10/18 03:12:46;;;;;;;9.50;8.60;;;11.50;99.90;;;;;;5037566;28;20179;-59
2022/10/18 03:15:11;;;;;;;8.13;7.13;;;11.40;99.90;;;;;;5036367;28;20631;-58
2022/10/18 03:17:37;;;;;;;8.67;7.87;;;11.30;99.90;;;;;;5037124;28;20204;-59
2022/10/18 03:20:02;;;;;;;8.73;7.40;;;11.30;99.90;;;;;;5033852;28;20191;-59
2022/10/18 03:22:28;;;;;;;10.40;9.27;;;11.30;99.90;;;;;;5037094;28;20266;-58
2022/10/18 03:24:54;;;;;;;9.07;8.17;;;11.30;99.90;;;;;;5034767;28;20195;-61
2022/10/18 03:27:19;;;;;;;9.67;8.77;;;11.30;99.90;;;;;;5036771;28;20191;-60
2022/10/18 03:29:45;;;;;;;10.63;9.00;;;11.30;99.90;;;;;;5036307;28;20176;-59
2022/10/18 03:32:10;;;;;;;10.20;9.20;;;11.20;99.90;;;;;;5037086;28;20185;-58
2022/10/18 03:34:36;;;;;;;9.30;8.40;;;11.20;99.90;;;;;;5037076;28;20660;-55
2022/10/18 03:37:01;;;;;;;9.77;8.67;;;11.20;99.90;;;;;;5037240;28;20184;-57
2022/10/18 03:39:27;;;;;;;10.07;8.90;;;11.20;99.90;;;;;;5037124;28;20211;-59
2022/10/18 03:41:52;;;;;;;11.80;9.67;;;11.10;99.90;;;;;;5037147;28;20182;-60
2022/10/18 03:44:18;;;;;;;16.03;14.47;;;11.10;99.90;;;;;;5035650;28;20171;-60
2022/10/18 03:46:43;;;;;;;12.07;10.23;;;11.00;99.90;;;;;;5036567;28;20202;-58
2022/10/18 03:49:09;;;;;;;14.07;10.47;;;11.00;99.90;;;;;;5036281;28;20258;-60
2022/10/18 03:51:34;;;;;;;12.20;11.00;;;11.00;99.90;;;;;;5032400;28;20184;-59
2022/10/18 03:54:00;;;;;;;14.50;13.00;;;11.00;99.90;;;;;;5032077;28;20180;-58
2022/10/18 03:56:26;;;;;;;15.07;13.47;;;11.10;99.90;;;;;;5033722;28;20223;-57
2022/10/18 03:58:51;;;;;;;14.20;12.70;;;11.10;99.90;;;;;;5033910;28;20253;-58
2022/10/18 04:01:17;;;;;;;13.83;12.23;;;11.10;99.90;;;;;;5033827;28;20237;-60
2022/10/18 04:03:42;;;;;;;13.20;11.90;;;11.00;99.90;;;;;;5034067;28;20180;-56
2022/10/18 04:06:08;;;;;;;16.13;14.10;;;11.10;99.90;;;;;;5033827;28;20274;-54
2022/10/18 04:08:34;;;;;;;38.13;34.13;;;11.10;99.90;;;;;;5033897;28;20172;-59
2022/10/18 04:11:07;;;;;;;45.27;39.10;;;11.20;99.90;;;;;;5033872;28;20190;-59
2022/10/18 04:13:33;;;;;;;43.07;38.43;;;11.20;99.90;;;;;;5033367;28;20274;-58
2022/10/18 04:15:59;;;;;;;23.97;21.40;;;11.10;99.90;;;;;;5033870;28;20195;-59
2022/10/18 04:18:25;;;;;;;17.97;16.07;;;11.10;99.90;;;;;;5032196;28;20218;-55
2022/10/18 04:20:50;;;;;;;13.63;11.23;;;11.10;99.90;;;;;;5033679;28;20587;-58
2022/10/18 04:23:16;;;;;;;18.63;15.53;;;11.10;99.90;;;;;;5031980;28;20191;-59
2022/10/18 04:25:41;;;;;;;15.33;13.77;;;11.00;99.90;;;;;;5033646;28;20192;-57
2022/10/18 04:28:07;;;;;;;14.13;12.77;;;11.00;99.90;;;;;;5033321;28;20184;-57
2022/10/18 04:30:32;;;;;;;10.57;9.57;;;11.00;99.90;;;;;;5033305;28;20180;-55
2022/10/18 04:32:58;;;;;;;11.17;9.50;;;10.90;99.90;;;;;;5033463;28;20600;-57
2022/10/18 04:35:24;;;;;;;16.67;15.07;;;10.90;99.90;;;;;;5032123;28;20202;-59
2022/10/18 04:37:50;;;;;;;13.93;12.47;;;10.80;99.90;;;;;;5033078;28;20257;-58
2022/10/18 04:40:16;;;;;;;11.87;10.63;;;10.80;99.90;;;;;;5032274;28;20176;-56
2022/10/18 04:42:41;;;;;;;19.20;17.20;;;10.90;99.90;;;;;;5030708;28;20191;-57
2022/10/18 04:45:07;;;;;;;22.50;19.33;;;10.90;99.90;;;;;;5045887;28;20203;-56
2022/10/18 04:47:33;;;;;;;21.20;19.00;;;10.80;99.90;;;;;;5042515;28;20184;-59
2022/10/18 04:49:59;;;;;;;54.70;48.83;;;10.80;99.90;;;;;;5032627;28;20676;-59
2022/10/18 04:52:24;;;;;;;39.90;35.80;;;11.00;99.90;;;;;;5032816;28;20184;-57
2022/10/18 04:57:16;;;;;;;10.73;9.67;;;11.00;99.90;;;;;;5071657;23;20239;-58
2022/10/18 04:59:41;;;;;;;12.90;10.80;;;10.90;99.90;;;;;;5033994;28;20203;-60
2022/10/18 05:02:07;;;;;;;9.40;8.50;;;10.70;99.90;;;;;;5052021;28;20171;-57
2022/10/18 05:04:33;;;;;;;16.30;14.60;;;10.60;99.90;;;;;;5051139;28;20176;-57
2022/10/18 05:06:58;;;;;;;21.87;19.40;;;10.80;99.90;;;;;;5052144;28;20256;-59
2022/10/18 05:09:24;;;;;;;18.33;16.53;;;10.80;99.90;;;;;;5052724;28;20171;-59
2022/10/18 05:11:50;;;;;;;11.93;10.43;;;10.70;99.90;;;;;;5052319;28;20191;-60
2022/10/18 05:14:15;;;;;;;10.90;9.90;;;10.60;99.90;;;;;;5052431;28;20636;-60
2022/10/18 05:16:41;;;;;;;8.27;7.40;;;10.60;99.90;;;;;;5048270;28;20199;-58
2022/10/18 05:19:06;;;;;;;7.50;6.00;;;10.60;99.90;;;;;;5030003;28;20207;-59
2022/10/18 05:21:33;;;;;;;5.60;5.10;;;10.60;99.90;;;;;;5030588;28;20175;-55
2022/10/18 05:23:59;;;;;;;5.90;5.30;;;10.50;99.90;;;;;;5032093;28;20589;-54
2022/10/18 05:26:24;;;;;;;6.03;5.53;;;10.50;99.90;;;;;;5032325;28;20227;-57
2022/10/18 05:28:50;;;;;;;6.83;6.23;;;10.50;99.90;;;;;;5032022;28;20245;-54
2022/10/18 05:31:16;;;;;;;11.20;10.10;;;10.60;99.90;;;;;;5030871;28;20175;-60
2022/10/18 05:33:42;;;;;;;7.57;6.87;;;10.60;99.90;;;;;;5030063;28;20168;-60
2022/10/18 05:36:07;;;;;;;8.43;6.87;;;10.50;99.90;;;;;;5031331;28;20718;-57
2022/10/18 05:38:33;;;;;;;7.00;6.30;;;10.50;99.90;;;;;;5030760;28;20211;-58
2022/10/18 05:41:02;;;;;;;6.63;5.83;;;10.50;99.90;;;;;;5031987;28;20183;-58
2022/10/18 05:43:28;;;;;;;6.67;5.30;;;10.40;99.90;;;;;;5031915;28;20195;-56
2022/10/18 05:45:54;;;;;;;6.20;5.60;;;10.40;99.90;;;;;;5030684;28;20187;-55
2022/10/18 05:48:20;;;;;;;7.37;6.50;;;10.40;99.90;;;;;;5021595;28;20650;-58
2022/10/18 05:50:45;;;;;;;7.27;6.00;;;10.40;99.90;;;;;;5020275;28;20528;-60
2022/10/18 05:53:11;;;;;;;7.37;6.67;;;10.50;99.90;;;;;;5026349;28;20643;-61
2022/10/18 05:55:36;;;;;;;9.50;8.60;;;10.50;99.90;;;;;;5029993;28;20223;-59
2022/10/18 05:58:03;;;;;;;8.90;8.10;;;10.60;99.90;;;;;;5031221;28;20596;-56
2022/10/18 06:00:28;;;;;;;6.47;5.87;;;10.60;99.90;;;;;;5031779;28;20175;-58
2022/10/18 06:02:54;;;;;;;7.33;6.63;;;10.60;99.90;;;;;;5030880;28;20171;-58
2022/10/18 06:05:20;;;;;;;6.57;5.97;;;10.70;99.90;;;;;;5030888;28;20525;-59
2022/10/18 06:07:45;;;;;;;7.33;6.60;;;10.70;99.90;;;;;;5030776;28;20187;-60
2022/10/18 06:10:11;;;;;;;8.80;7.90;;;10.80;99.90;;;;;;5031395;28;20230;-58
2022/10/18 06:12:37;;;;;;;5.90;5.30;;;10.90;99.90;;;;;;5032557;28;20188;-58
2022/10/18 06:15:03;;;;;;;5.60;5.10;;;10.90;99.90;;;;;;5029362;28;20260;-60
2022/10/18 06:17:28;;;;;;;8.07;6.63;;;10.90;99.90;;;;;;5029469;28;20176;-59
2022/10/18 06:19:54;;;;;;;7.30;6.60;;;11.00;99.90;;;;;;5031592;28;20183;-58
2022/10/18 06:22:19;;;;;;;8.20;7.40;;;11.00;99.90;;;;;;5030120;28;20255;-58
2022/10/18 06:24:45;;;;;;;8.83;7.50;;;11.00;99.90;;;;;;5029744;28;20229;-58
2022/10/18 06:27:11;;;;;;;10.17;8.90;;;11.10;99.90;;;;;;5030572;28;20596;-57
2022/10/18 06:29:37;;;;;;;11.10;9.97;;;11.20;99.90;;;;;;5029310;28;20184;-60
2022/10/18 06:32:04;;;;;;;11.20;9.80;;;11.30;99.90;;;;;;5031155;28;20187;-59
2022/10/18 06:34:30;;;;;;;7.73;6.93;;;11.40;99.90;;;;;;5027545;28;20190;-61
2022/10/18 06:36:55;;;;;;;7.53;6.70;;;11.60;99.90;;;;;;5023923;28;20199;-59
2022/10/18 06:39:21;;;;;;;7.13;6.43;;;11.60;99.90;;;;;;5026984;28;20206;-58
2022/10/18 06:41:46;;;;;;;6.33;5.73;;;11.60;99.90;;;;;;5030966;28;20191;-56
2022/10/18 06:44:13;;;;;;;6.03;5.50;;;11.70;99.90;;;;;;5030746;28;20175;-61
2022/10/18 06:46:43;;;;;;;7.33;5.80;;;11.80;99.90;;;;;;5029064;28;20194;-59
2022/10/18 06:49:10;;;;;;;6.20;5.03;;;11.90;99.90;;;;;;5024671;28;20206;-59
2022/10/18 06:51:36;;;;;;;6.50;5.63;;;11.90;99.90;;;;;;5027974;28;20700;-60
2022/10/18 06:54:02;;;;;;;7.27;5.90;;;12.10;99.90;;;;;;5029845;28;20191;-56
2022/10/18 06:56:28;;;;;;;7.53;5.70;;;12.10;99.90;;;;;;5030609;28;20216;-59
2022/10/18 06:58:53;;;;;;;7.93;6.30;;;12.10;99.90;;;;;;5030397;28;20225;-57
2022/10/18 07:01:19;;;;;;;6.23;5.63;;;12.20;99.90;;;;;;5030960;28;20537;-58
2022/10/18 07:03:47;;;;;;;7.00;4.90;;;12.50;99.90;;;;;;5029826;28;20164;-56
2022/10/18 07:06:15;;;;;;;6.97;5.60;;;12.70;99.90;;;;;;5029062;28;20694;-58
2022/10/18 07:08:41;;;;;;;7.10;6.27;;;13.00;99.90;;;;;;5028273;28;20538;-59
2022/10/18 07:11:12;;;;;;;7.30;6.53;;;13.10;99.90;;;;;;5030025;28;20174;-57
2022/10/18 07:13:38;;;;;;;6.63;5.30;;;13.30;99.90;;;;;;5030225;28;20698;-57
2022/10/18 07:16:09;;;;;;;5.13;4.63;;;13.20;99.90;;;;;;5030664;28;20201;-57
2022/10/18 07:18:37;;;;;;;4.90;4.50;;;13.40;99.90;;;;;;5031184;28;20663;-57
2022/10/18 07:21:04;;;;;;;5.83;5.23;;;13.50;99.90;;;;;;5030663;28;20172;-57
2022/10/18 07:23:34;;;;;;;5.93;5.33;;;13.70;99.90;;;;;;5030327;28;20170;-59
2022/10/18 07:26:01;;;;;;;6.13;5.53;;;14.10;99.90;;;;;;5030577;28;20199;-59
2022/10/18 07:28:27;;;;;;;5.63;5.00;;;14.20;99.90;;;;;;5034258;28;20286;-58
2022/10/18 07:30:53;;;;;;;5.53;5.03;;;14.40;99.90;;;;;;5034628;28;20171;-58
2022/10/18 07:33:19;;;;;;;5.83;5.03;;;14.60;99.90;;;;;;5033972;28;20180;-58
2022/10/18 07:35:45;;;;;;;5.90;5.40;;;14.80;99.90;;;;;;5033324;28;20526;-58
2022/10/18 07:38:11;;;;;;;6.80;6.10;;;15.00;99.90;;;;;;5032685;28;20207;-57
2022/10/18 07:40:36;;;;;;;7.43;6.43;;;15.30;99.90;;;;;;5034011;28;20180;-58
2022/10/18 07:43:02;;;;;;;8.50;6.17;;;15.60;99.90;;;;;;5034182;28;20203;-61
2022/10/18 07:45:28;;;;;;;7.23;6.63;;;15.90;99.90;;;;;;5034162;28;20196;-58
2022/10/18 07:47:57;;;;;;;8.47;7.57;;;16.40;99.90;;;;;;5034427;28;20175;-59
2022/10/18 07:50:22;;;;;;;8.73;7.80;;;16.80;99.90;;;;;;5034015;28;20238;-60
2022/10/18 07:52:48;;;;;;;9.17;7.80;;;17.50;99.90;;;;;;5034255;28;20176;-60
2022/10/18 07:55:13;;;;;;;7.50;6.70;;;18.20;99.90;;;;;;5032782;28;20200;-58
2022/10/18 07:57:39;;;;;;;8.47;6.13;;;19.30;99.90;;;;;;5034392;28;20653;-61
2022/10/18 08:00:07;;;;;;;6.53;5.87;;;20.30;99.90;;;;;;5053424;28;20249;-58
2022/10/18 08:02:33;;;;;;;8.40;6.20;;;21.30;99.90;;;;;;5053837;28;20190;-61
2022/10/18 08:04:59;;;;;;;7.70;6.60;;;22.40;99.90;;;;;;5053676;28;20202;-58
2022/10/18 08:07:24;;;;;;;7.13;6.43;;;23.50;99.90;;;;;;5045222;28;20222;-59
2022/10/18 08:09:50;;;;;;;6.97;6.38;;;24.30;99.90;;;;;;5034052;28;20259;-62
2022/10/18 08:12:15;;;;;;;6.95;6.22;;;25.20;99.90;;;;;;5033615;28;20182;-60
2022/10/18 08:14:41;;;;;;;5.72;5.22;;;25.90;99.90;;;;;;5031044;28;20191;-60
2022/10/18 08:17:07;;;;;;;5.78;4.60;;;26.20;99.90;;;;;;5032609;28;20188;-58
2022/10/18 08:19:32;;;;;;;8.63;5.47;;;26.40;99.90;;;;;;5030165;28;20246;-62
2022/10/18 08:21:58;;;;;;;7.72;5.45;;;27.60;99.00;;;;;;5033442;28;20605;-62
2022/10/18 08:24:23;;;;;;;5.38;4.88;;;28.40;97.30;;;;;;5032818;28;20194;-60
2022/10/18 08:26:49;;;;;;;4.80;3.90;;;28.50;97.10;;;;;;5033660;28;20200;-56
2022/10/18 08:29:15;;;;;;;4.45;4.05;;;28.90;97.00;;;;;;5033165;28;20180;-62
2022/10/18 08:31:40;;;;;;;6.03;4.22;;;29.20;96.10;;;;;;5033108;28;20176;-62
2022/10/18 08:34:06;;;;;;;6.05;4.90;;;29.10;96.00;;;;;;5032201;28;20684;-60
2022/10/18 08:36:31;;;;;;;5.10;4.60;;;30.30;93.80;;;;;;5032508;28;20226;-62
2022/10/18 08:38:57;;;;;;;4.88;4.38;;;30.80;93.10;;;;;;5032035;28;20210;-59
2022/10/18 08:41:29;;;;;;;4.65;3.88;;;31.70;92.20;;;;;;5031873;28;20677;-58
2022/10/18 08:44:06;;;;;;;5.50;4.20;;;32.50;91.00;;;;;;5033071;28;20515;-58
2022/10/18 08:46:33;;;;;;;5.88;3.80;;;33.60;87.80;;;;;;5032885;28;20703;-60
2022/10/18 08:49:01;;;;;;;4.78;4.30;;;34.30;86.70;;;;;;5032821;28;20171;-59
2022/10/18 08:51:45;;;;;;;5.40;4.82;;;34.50;84.40;;;;;;5032827;28;20175;-60
2022/10/18 08:54:28;;;;;;;8.13;6.68;;;34.70;82.10;;;;;;5033020;28;20168;-59
2022/10/18 08:56:59;;;;;;;7.53;6.88;;;34.10;82.00;;;;;;5032501;28;20709;-59
2022/10/18 08:59:37;;;;;;;8.90;7.55;;;33.80;81.40;;;;;;5033141;28;20211;-59
2022/10/18 09:02:10;;;;;;;7.70;7.07;;;33.20;82.20;;;;;;5032918;28;20171;-60
2022/10/18 09:05:10;;;;;;;7.20;6.60;;;33.80;82.30;;;;;;5032819;28;20462;-60
2022/10/18 09:08:00;;;;;;;5.50;5.00;;;35.00;77.10;;;;;;4990933;28;20721;-60
2022/10/18 09:10:44;;;;;;;4.88;4.47;;;35.80;75.60;;;;;;4991303;28;20288;-58
2022/10/18 09:13:32;;;;;;;7.47;4.88;;;37.00;73.50;;;;;;4990668;28;20550;-60
2022/10/18 09:16:00;;;;;;;5.55;4.40;;;37.60;68.70;;;;;;4990966;28;20516;-59
2022/10/18 09:18:31;;;;;;;5.03;4.47;;;37.30;68.80;;;;;;4989398;28;20212;-60
2022/10/18 09:20:59;;;;;;;5.97;5.38;;;35.60;72.30;;;;;;4989402;28;20188;-60
2022/10/18 09:23:45;;;;;;;6.60;5.43;;;35.30;72.90;;;;;;4990115;28;20181;-57
2022/10/18 09:26:24;;;;;;;6.78;5.68;;;35.00;73.60;;;;;;4990480;28;20204;-58
2022/10/18 09:29:25;;;;;;;6.43;4.68;;;35.30;72.90;;;;;;4990949;28;20183;-57
2022/10/18 09:32:27;;;;;;;5.40;4.97;;;36.00;72.50;;;;;;4990318;28;20193;-57
2022/10/18 09:34:59;;;;;;;6.88;4.47;;;37.40;67.50;;;;;;4990517;28;20219;-60
2022/10/18 09:37:30;;;;;;;5.45;3.72;;;38.10;67.10;;;;;;4989146;28;20189;-61
2022/10/18 09:40:17;;;;;;;4.93;4.40;;;37.80;65.10;;;;;;4989774;28;20238;-61
2022/10/18 09:43:01;;;;;;;4.03;3.72;;;38.20;62.50;;;;;;4988697;28;20188;-60
2022/10/18 09:45:30;;;;;;;6.22;4.53;;;36.60;65.00;;;;;;5028113;28;20195;-58
2022/10/18 09:48:14;;;;;;;4.90;4.50;;;33.20;71.20;;;;;;5030018;28;20182;-59
2022/10/18 09:50:49;;;;;;;5.25;4.72;;;30.60;78.30;;;;;;5029951;28;20265;-59
2022/10/18 09:53:47;;;;;;;4.57;4.18;;;29.60;81.70;;;;;;5030159;28;20167;-57
2022/10/18 09:56:16;;;;;;;5.95;5.13;;;30.00;80.40;;;;;;5050605;28;20210;-50
2022/10/18 09:58:46;;;;;;;8.50;5.20;;;31.00;81.50;;;;;;5037720;28;20195;-57
2022/10/18 10:01:30;;;;;;;5.40;3.95;;;32.80;73.40;;;;;;5031541;28;20525;-57
2022/10/18 10:03:56;;;;;;;10.27;4.60;;;32.70;71.60;;;;;;5031582;28;20163;-54
2022/10/18 10:06:27;;;;;;;4.18;3.78;;;31.60;76.90;;;;;;5032177;28;20249;-56
2022/10/18 10:08:57;;;;;;;4.25;3.85;;;31.20;77.80;;;;;;5051642;28;20175;-54
2022/10/18 10:11:33;;;;;;;4.80;4.32;;;30.50;79.30;;;;;;5051089;28;20194;-54
2022/10/18 10:14:14;;;;;;;5.68;4.63;;;29.90;79.40;;;;;;5051259;28;20735;-55
2022/10/18 10:17:25;;;;;;;5.28;4.57;;;30.00;81.20;;;;;;5050913;28;20183;-57
2022/10/18 10:20:02;;;;;;;6.32;5.18;;;29.90;82.40;;;;;;5051731;28;20186;-58
2022/10/18 10:22:36;;;;;;;5.68;5.22;;;28.80;84.00;;;;;;5050352;28;20167;-58
2022/10/18 10:25:03;;;;;;;5.40;4.90;;;28.20;87.90;;;;;;5050684;28;20195;-58
2022/10/18 10:27:32;;;;;;;6.47;5.88;;;27.90;89.80;;;;;;5050359;28;20199;-60
2022/10/18 10:30:02;;;;;;;6.80;6.10;;;27.50;90.30;;;;;;5049666;28;20186;-57
2022/10/18 10:32:30;;;;;;;7.35;5.85;;;27.00;90.30;;;;;;5050731;28;20649;-58
2022/10/18 10:34:56;;;;;;;7.70;5.45;;;26.20;92.20;;;;;;5050820;28;20199;-57
2022/10/18 10:37:22;;;;;;;6.43;5.25;;;25.60;92.90;;;;;;5049596;28;20514;-58
2022/10/18 10:40:12;;;;;;;6.70;5.55;;;24.90;95.60;;;;;;5050175;28;20305;-57
2022/10/18 10:42:54;;;;;;;6.90;5.65;;;24.30;97.40;;;;;;5049814;28;20148;-54
2022/10/18 10:45:22;;;;;;;5.18;4.78;;;24.50;98.80;;;;;;5050161;28;20194;-57
2022/10/18 10:47:48;;;;;;;5.00;4.60;;;24.50;99.40;;;;;;5050861;28;20182;-57
2022/10/18 10:50:25;;;;;;;5.82;5.15;;;24.30;99.90;;;;;;5051255;28;20168;-55
2022/10/18 10:52:52;;;;;;;6.82;5.65;;;24.00;99.90;;;;;;5051040;28;20487;-56
2022/10/18 10:55:33;;;;;;;6.05;5.55;;;23.40;99.90;;;;;;5039247;28;20257;-56
2022/10/18 10:57:59;;;;;;;6.10;5.45;;;22.80;99.90;;;;;;5031271;28;20191;-57
2022/10/18 11:00:37;;;;;;;6.35;5.75;;;22.20;99.90;;;;;;5030802;28;20172;-57
2022/10/18 11:03:21;;;;;;;10.00;6.25;;;21.90;99.90;;;;;;5035185;28;20198;-58
2022/10/18 11:05:52;;;;;;;8.10;6.30;;;21.80;99.90;;;;;;5034854;28;20559;-58
2022/10/18 11:08:27;;;;;;;7.53;6.70;;;21.80;99.90;;;;;;5035160;28;20255;-56
2022/10/18 11:10:59;;;;;;;7.32;6.70;;;22.00;99.90;;;;;;5034879;28;20178;-55
2022/10/18 11:13:28;;;;;;;6.97;5.85;;;22.10;99.90;;;;;;5034859;28;20176;-54
2022/10/18 11:16:04;;;;;;;7.03;6.07;;;22.40;99.90;;;;;;5034880;28;20195;-57
2022/10/18 11:18:36;;;;;;;6.72;6.15;;;22.20;99.90;;;;;;5034887;28;20740;-57
2022/10/18 11:21:10;;;;;;;7.40;6.70;;;22.20;99.90;;;;;;5034981;28;20176;-57
2022/10/18 11:23:38;;;;;;;7.43;6.72;;;22.00;99.90;;;;;;5034594;28;20280;-57
2022/10/18 11:26:31;;;;;;;7.75;6.30;;;21.70;99.90;;;;;;5034770;28;20214;-58
2022/10/18 11:28:56;;;;;;;7.38;6.65;;;21.40;99.90;;;;;;5034713;28;20203;-58
2022/10/18 11:31:40;;;;;;;8.30;6.40;;;21.20;99.90;;;;;;5034656;28;20172;-58
2022/10/18 11:34:35;;;;;;;8.20;7.25;;;21.00;99.90;;;;;;5034547;28;20222;-58
2022/10/18 11:37:10;;;;;;;8.02;7.32;;;21.00;99.90;;;;;;5034619;28;20195;-58
2022/10/18 11:39:45;;;;;;;7.95;7.05;;;21.20;99.90;;;;;;5034448;28;20303;-59
2022/10/18 11:42:32;;;;;;;7.78;7.07;;;21.00;99.90;;;;;;5034652;28;20175;-58
2022/10/18 11:45:10;;;;;;;8.38;7.30;;;21.00;99.90;;;;;;5034242;28;20164;-58
2022/10/18 11:48:00;;;;;;;7.40;6.70;;;21.30;99.90;;;;;;5034321;28;20175;-57
2022/10/18 11:50:32;;;;;;;9.95;8.38;;;21.50;99.90;;;;;;5034463;28;20156;-59
2022/10/18 11:53:15;;;;;;;12.73;11.63;;;22.00;99.90;;;;;;5034480;28;20485;-57
2022/10/18 11:55:47;;;;;;;9.25;7.85;;;22.50;99.90;;;;;;5034167;28;20291;-55
2022/10/18 11:58:41;;;;;;;16.52;14.90;;;22.90;99.90;;;;;;5034238;28;20245;-58
2022/10/18 12:01:29;;;;;;;11.25;10.25;;;24.10;99.90;;;;;;5012030;28;20243;-58
2022/10/18 12:04:03;;;;;;;9.82;6.50;;;24.60;99.90;;;;;;5011738;28;20175;-57
2022/10/18 12:06:34;;;;;;;11.30;7.18;;;24.40;99.90;;;;;;5012166;28;20204;-57
2022/10/18 12:09:18;;;;;;;12.60;6.47;;;24.70;99.90;;;;;;5012090;28;20185;-58
2022/10/18 12:11:51;;;;;;;7.88;6.38;;;25.40;99.90;;;;;;5012040;28;20193;-57
2022/10/18 12:14:26;;;;;;;7.50;5.15;;;26.10;99.90;;;;;;5010801;28;20207;-58
2022/10/18 12:16:53;;;;;;;6.47;5.82;;;26.60;99.90;;;;;;5011736;28;20207;-57
2022/10/18 12:19:25;;;;;;;7.28;5.85;;;27.30;99.90;;;;;;5011583;28;20216;-56
2022/10/18 12:21:51;;;;;;;8.55;5.72;;;27.80;99.40;;;;;;5011672;28;20239;-57
2022/10/18 12:24:21;;;;;;;6.20;5.22;;;27.90;98.80;;;;;;5012154;28;20180;-59
2022/10/18 12:26:50;;;;;;;6.05;5.38;;;27.60;99.00;;;;;;5011603;28;20602;-58
2022/10/18 12:29:59;;;;;;;8.15;6.15;;;26.60;99.90;;;;;;5011518;28;20267;-58
2022/10/18 12:32:30;;;;;;;7.03;6.32;;;25.80;99.90;;;;;;4991850;28;20231;-60
2022/10/18 12:35:23;;;;;;;6.95;6.28;;;24.90;99.90;;;;;;4991229;28;20244;-57
2022/10/18 12:38:23;;;;;;;7.25;6.00;;;24.70;99.90;;;;;;4998389;28;20192;-57
2022/10/18 12:40:52;;;;;;;6.55;5.95;;;24.80;99.90;;;;;;5011329;28;20676;-58
2022/10/18 12:43:26;;;;;;;7.70;5.93;;;24.70;99.90;;;;;;5011019;28;20256;-56
2022/10/18 12:45:54;;;;;;;6.88;5.38;;;24.90;99.90;;;;;;5011036;28;20224;-59
2022/10/18 12:48:29;;;;;;;7.65;6.13;;;25.20;99.90;;;;;;5010404;28;20206;-58
2022/10/18 12:51:14;;;;;;;7.30;5.25;;;25.90;99.90;;;;;;5010910;28;20234;-59
2022/10/18 12:53:41;;;;;;;6.97;6.28;;;26.50;99.90;;;;;;5010958;28;20268;-58
2022/10/18 12:56:27;;;;;;;9.02;6.55;;;26.90;99.90;;;;;;5010827;28;20212;-58
2022/10/18 12:59:14;;;;;;;7.85;6.90;;;27.50;99.90;;;;;;5010871;28;20291;-59
2022/10/18 13:01:49;;;;;;;6.45;5.70;;;27.70;99.90;;;;;;5010732;28;20243;-56
2022/10/18 13:04:27;;;;;;;9.88;8.85;;;27.40;99.90;;;;;;5010710;28;20176;-58